Thyatira, Mississippi
Current Conditions -  °F | °C
As of 6:55 AM on Wednesday 26 Nov 2014 (Local Time) from KUOX Reporting Station
Haze Haze  
Wind Chill: 28°   Ceiling: Unl
Heat Index: 28°   Visibility: 6mi
Dew Point: 25°   Wind: 3mph
Humidity: 86%   Direction: 120°ESE
Pressure: 30.17"   Gusts: NA
Location:  34.6336°N, 89.8203°W
Report Text: KUOX 261255Z AUTO 12003KT 6SM BR CLR M02/M04 A3017 RMK AO2 PWINO PNO
Loading
Personal Weather Stations






























Interactive Weather Map New forecast layout! Learn more

10-Day Weather Forecast

Advertisements
Track Severe Weather on mobile